Nearby METAR Reports

 

KDWH - Houston/Dw Hooks, Texas, USA
Distance from station: WNW 3mi, 6km
Updated: 10/23/2020 6:53pm
Overcast
Overcast
 Wind from NNW
Wind: NNW 12 mph , 19 km/h
Temperature: 64°F , 18°C
Dew Point: 59°F , 15°C
Humidity: 83%
Barometer: 30.05 inHg , 1017.6 hPa
Clouds: Overcast
Visibility: 10 miles , 16 km
Cloud details: Mostly cloudy 1400 ft
Overcast 2100 ft
2020/10/23 23:53 KDWH 232353Z 33010KT 310V010 10SM BKN014 OVC021 18/15 A3005 RMK AO2 SLP172 6//// T01830150 10311 20183 51043 PNO
KIAH - Houston/Intnl, Texas, USA
Distance from station: ESE 9mi, 14km
Updated: 10/23/2020 6:53pm
Mostly cloudy
Mostly cloudy
 Wind from NNW
Wind: NNW 15 mph , 24 km/h, Gust: 20 mph , 31 km/h
Temperature: 70°F , 21°C
Dew Point: 63°F , 17°C
Humidity: 78%
Barometer: 30.02 inHg , 1016.6 hPa
Clouds: Mostly cloudy
Visibility: 10 miles , 16 km
Cloud details: Mostly cloudy 2000 ft
Mostly cloudy 25000 ft
2020/10/23 23:53 KIAH 232353Z 33013G17KT 10SM BKN020 BKN250 21/17 A3002 RMK AO2 PK WND 34026/2312 SLP165 60000 T02110167 10328 20211 53030
 
KCXO - Conroe, Texas, USA
Distance from station: NNE 21mi, 34km
Updated: 10/23/2020 6:53pm
Overcast
Overcast
 Wind from N
Wind: N 13 mph , 20 km/h, Gust: 24 mph , 39 km/h
Temperature: 63°F , 17°C
Dew Point: 57°F , 14°C
Humidity: 83%
Barometer: 30.06 inHg , 1017.9 hPa
Clouds: Overcast
Visibility: 10 miles , 16 km
Cloud details: Overcast 1000 ft
2020/10/23 23:53 KCXO 232353Z 36011G21KT 10SM OVC010 17/14 A3006 RMK AO2 SLP176 60001 T01670139 10244 20167 51022
KMCJ - Houston/Univ, Texas, USA
Distance from station: SSE 24mi, 39km
Updated: 10/23/2020 7:15pm
Mostly cloudy
Mostly cloudy
 Wind from NNW
Wind: NNW 17 mph , 28 km/h, Gust: 35 mph , 56 km/h
Temperature: 70°F , 21°C
Dew Point: 63°F , 17°C
Humidity: 78%
Barometer: 29.99 inHg , 1015.6 hPa
Clouds: Mostly cloudy
Visibility: 10 miles , 16 km
Cloud details: Mostly cloudy 2500 ft
2020/10/24 00:15 KMCJ 240015Z AUTO 33015G30KT 230V350 10SM BKN025 21/17 A2999 RMK A01
 
KTME - Houston Exec, Texas, USA
Distance from station: SW 30mi, 48km
Updated: 10/23/2020 7:15pm
Overcast
Overcast
 Wind from N
Wind: N 16 mph , 26 km/h
Temperature: 63°F , 17°C
Dew Point: 59°F , 15°C
Humidity: 88%
Barometer: 30.07 inHg , 1018.3 hPa
Clouds: Overcast
Visibility: 10 miles , 16 km
Cloud details: Overcast 2300 ft
2020/10/24 00:15 KTME 240015Z AUTO 36014KT 10SM OVC023 17/15 A3007 RMK AO2
KHOU - Houston/Hobby, Texas, USA
Distance from station: SSE 32mi, 51km
Updated: 10/23/2020 6:53pm
Mostly cloudy
Mostly cloudy
 Wind from N
Wind: N 20 mph , 31 km/h
Temperature: 73°F , 23°C
Dew Point: 63°F , 17°C
Humidity: 69%
Barometer: 29.99 inHg , 1015.6 hPa
Clouds: Mostly cloudy
Visibility: 10 miles , 16 km
Cloud details: Mostly cloudy 2600 ft
Mostly cloudy 8000 ft
Mostly cloudy 25000 ft
2020/10/23 23:53 KHOU 232353Z 35017KT 10SM BKN026 BKN080 BKN250 23/17 A2999 RMK AO2 SLP160 60002 T02330172 10328 20233 53025
 
KSGR - Houston/Sugar La, Texas, USA
Distance from station: SSW 32mi, 51km
Updated: 10/23/2020 6:53pm
Clear
Clear
 Wind from N
Wind: N 18 mph , 30 km/h
Temperature: 72°F , 22°C
Dew Point: 64°F , 18°C
Humidity: 78%
Barometer: 30.01 inHg , 1016.3 hPa
Clouds: Clear
Visibility: 10 miles , 16 km
2020/10/23 23:53 KSGR 232353Z 35016KT 10SM CLR 22/18 A3001 RMK AO2 PK WND 35026/2341 SLP162 6//// T02170178 10322 20217 $
K6R3 - Cleveland Muni, Texas, USA
Distance from station: NE 36mi, 58km
Updated: 10/23/2020 7:15pm
Overcast
Overcast
 Wind from NNW
Wind: NNW 16 mph , 26 km/h, Gust: 21 mph , 33 km/h
Temperature: 66°F , 19°C
Dew Point: 63°F , 17°C
Humidity: 88%
Barometer: 30.04 inHg , 1017.3 hPa
Clouds: Overcast
Visibility: 7 miles , 11 km
Cloud details: Overcast 900 ft
2020/10/24 00:15 K6R3 240015Z AUTO 34014G18KT 7SM OVC009 19/17 A3004 RMK AO2 T01850165
 
KAXH - Houston/Southwst, Texas, USA
Distance from station: S 37mi, 60km
Updated: 10/23/2020 7:15pm
Clear
Clear
 Wind from N
Wind: N 9 mph , 15 km/h, Gust: 21 mph , 33 km/h
Temperature: 73°F , 23°C
Dew Point: 64°F , 18°C
Humidity: 74%
Barometer: 30.01 inHg , 1016.3 hPa
Clouds: Clear
Visibility: 10 miles , 16 km
2020/10/24 00:15 KAXH 240015Z AUTO 35008G18KT 10SM CLR 23/18 A3001 RMK AO2 T02250180
KEFD - Houston/Ellingto, Texas, USA
Distance from station: SSE 37mi, 60km
Updated: 10/23/2020 6:50pm
Clear
Clear
 Wind from NNW
Wind: NNW 16 mph , 26 km/h
Temperature: 75°F , 24°C
Dew Point: 64°F , 18°C
Humidity: 69%
Barometer: 29.98 inHg , 1015.2 hPa
Clouds: Clear
Visibility: 10 miles , 16 km
2020/10/23 23:50 KEFD 232350Z 34014KT 10SM CLR 24/18 A2998
 
KLVJ - Houston, Texas, USA
Distance from station: SSE 40mi, 64km
Updated: 10/23/2020 6:53pm
Clear
Clear
 Wind from N
Wind: N 14 mph , 22 km/h, Gust: 24 mph , 39 km/h
Temperature: 75°F , 24°C
Dew Point: 63°F , 17°C
Humidity: 65%
Barometer: 30.00 inHg , 1015.9 hPa
Clouds: Clear
Visibility: 10 miles , 16 km
2020/10/23 23:53 KLVJ 232353Z AUTO 35012G21KT 10SM CLR 24/17 A3000 RMK AO2 SLP156 T02440172 10322 20244 53017
KUTS - Huntsville, Texas, USA
Distance from station: N 48mi, 78km
Updated: 10/23/2020 6:53pm
Overcast
Overcast
 Wind from NNW
Wind: NNW 8 mph , 13 km/h, Gust: 17 mph , 28 km/h
Temperature: 59°F , 15°C
Dew Point: 54°F , 12°C
Humidity: 82%
Barometer: 30.08 inHg , 1018.6 hPa
Clouds: Overcast
Visibility: 10 miles , 16 km
Cloud details: Overcast 700 ft
2020/10/23 23:53 KUTS 232353Z AUTO 34007G15KT 10SM OVC007 15/12 A3008 RMK AO2 CIG 007V011 SLP184 60001 T01500122 10217 20150 51035